Time;durP1;ratioP1;P1;durP2;ratioP2;P2;SDS_P1;SDS_P2;PMS_P1;PMS_P2;Temp;Humidity;BMP_temperature;BMP_pressure;BME280_temperature;BME280_humidity;BME280_pressure;Samples;Min_cycle;Max_cycle;Signal;HPM_P1;HPM_P2
2022/02/22 00:00:51;;;;;;;3.65;0.93;;;6.30;86.40;;;;;;5096419;28;20065;-76
2022/02/22 00:03:17;;;;;;;1.75;0.70;;;6.30;86.40;;;;;;5096258;28;20138;-76
2022/02/22 00:05:43;;;;;;;5.28;1.15;;;6.40;86.40;;;;;;5114722;28;20090;-76
2022/02/22 00:08:09;;;;;;;4.63;1.00;;;6.40;86.40;;;;;;5114482;28;20047;-76
2022/02/22 00:10:35;;;;;;;7.10;1.20;;;6.30;86.30;;;;;;5095913;28;20031;-76
2022/02/22 00:13:01;;;;;;;5.28;1.08;;;6.40;86.40;;;;;;5079181;28;20050;-76
2022/02/22 00:15:28;;;;;;;4.65;0.73;;;6.30;86.30;;;;;;5096001;28;20096;-76
2022/02/22 00:17:54;;;;;;;5.82;1.13;;;6.30;86.40;;;;;;5113915;28;20047;-76
2022/02/22 00:20:20;;;;;;;3.97;1.00;;;6.30;86.40;;;;;;5078695;28;20051;-76
2022/02/22 00:22:45;;;;;;;5.90;1.35;;;6.40;86.50;;;;;;5095685;28;20069;-76
2022/02/22 00:25:12;;;;;;;4.40;1.00;;;6.40;86.50;;;;;;5114141;28;20119;-76
2022/02/22 00:27:40;;;;;;;4.53;1.20;;;6.40;86.40;;;;;;5095513;28;20138;-76
2022/02/22 00:30:07;;;;;;;3.55;1.08;;;6.40;86.40;;;;;;5114060;28;20043;-76
2022/02/22 00:32:33;;;;;;;4.63;1.17;;;6.30;86.40;;;;;;5078651;28;20059;-77
2022/02/22 00:34:59;;;;;;;3.20;1.05;;;6.30;86.50;;;;;;5078644;28;20501;-76
2022/02/22 00:37:25;;;;;;;8.90;1.65;;;6.30;86.60;;;;;;5113562;28;20135;-76
2022/02/22 00:39:51;;;;;;;3.97;1.08;;;6.40;86.60;;;;;;5113655;28;20106;-77
2022/02/22 00:42:17;;;;;;;3.47;1.15;;;6.30;86.60;;;;;;5113301;28;20481;-76
2022/02/22 00:44:43;;;;;;;6.57;1.42;;;6.30;86.60;;;;;;5078431;28;20400;-75
2022/02/22 00:47:09;;;;;;;6.70;1.50;;;6.30;86.70;;;;;;5095294;28;20046;-76
2022/02/22 00:49:35;;;;;;;6.70;1.30;;;6.30;86.80;;;;;;5095205;28;20134;-76
2022/02/22 00:52:01;;;;;;;4.13;0.82;;;6.20;86.70;;;;;;5095192;28;20062;-77
2022/02/22 00:54:26;;;;;;;3.80;0.93;;;6.20;86.90;;;;;;5113596;28;20039;-76
2022/02/22 00:56:52;;;;;;;2.80;0.98;;;6.00;86.90;;;;;;5095032;28;20039;-76
2022/02/22 00:59:18;;;;;;;3.38;0.93;;;6.00;87.20;;;;;;5113346;28;20043;-76
2022/02/22 01:01:44;;;;;;;3.47;1.10;;;5.80;87.20;;;;;;5094475;28;20052;-76
2022/02/22 01:04:09;;;;;;;5.15;1.02;;;5.90;87.30;;;;;;5113576;28;20067;-75
2022/02/22 01:06:35;;;;;;;6.07;1.20;;;5.80;87.30;;;;;;5094858;28;20401;-76
2022/02/22 01:09:04;;;;;;;5.65;1.27;;;5.80;87.50;;;;;;5113395;28;20039;-76
2022/02/22 01:11:29;;;;;;;3.78;0.90;;;5.80;87.50;;;;;;5095340;28;20489;-76
2022/02/22 01:13:55;;;;;;;1.75;0.65;;;5.80;87.60;;;;;;5112939;28;20031;-76
2022/02/22 01:16:21;;;;;;;4.43;1.13;;;5.70;87.70;;;;;;5113491;28;20437;-77
2022/02/22 01:18:47;;;;;;;5.68;1.27;;;5.70;87.80;;;;;;5112869;28;20031;-76
2022/02/22 01:21:13;;;;;;;3.60;1.02;;;5.70;88.50;;;;;;5113148;28;20489;-76
2022/02/22 01:23:38;;;;;;;4.50;0.95;;;5.60;87.80;;;;;;5094734;28;20050;-76
2022/02/22 01:26:05;;;;;;;5.45;1.13;;;5.60;87.90;;;;;;5112719;28;20544;-76
2022/02/22 01:28:31;;;;;;;4.03;0.93;;;5.60;88.00;;;;;;5094968;28;20040;-76
2022/02/22 01:30:57;;;;;;;4.47;1.15;;;5.60;88.20;;;;;;5112843;28;20398;-76
2022/02/22 01:33:22;;;;;;;3.38;0.93;;;5.40;88.10;;;;;;5113161;28;20039;-76
2022/02/22 01:35:48;;;;;;;4.43;1.10;;;5.40;88.10;;;;;;5113020;28;20126;-76
2022/02/22 01:38:14;;;;;;;4.38;1.10;;;5.40;88.20;;;;;;5077537;28;20044;-76
2022/02/22 01:40:39;;;;;;;3.92;0.90;;;5.40;88.30;;;;;;5112599;28;20048;-76
2022/02/22 01:43:05;;;;;;;2.38;0.80;;;5.30;88.30;;;;;;5060885;28;20064;-76
2022/02/22 01:45:31;;;;;;;3.10;0.82;;;5.30;88.50;;;;;;5060871;28;20040;-76
2022/02/22 01:47:57;;;;;;;3.75;0.82;;;5.20;88.50;;;;;;5094446;28;20039;-76
2022/02/22 01:50:22;;;;;;;3.72;0.73;;;5.20;88.70;;;;;;5112513;28;20084;-76
2022/02/22 01:52:48;;;;;;;4.10;1.10;;;5.20;88.70;;;;;;5112765;28;20382;-76
2022/02/22 01:55:15;;;;;;;2.22;0.68;;;5.10;88.60;;;;;;5094105;28;20126;-76
2022/02/22 01:57:41;;;;;;;3.70;1.00;;;5.10;88.70;;;;;;5094000;28;20044;-76
2022/02/22 02:00:10;;;;;;;3.22;0.85;;;5.10;88.70;;;;;;5112424;28;20481;-76
2022/02/22 02:02:36;;;;;;;3.72;0.82;;;5.10;88.80;;;;;;5077327;28;20048;-76
2022/02/22 02:05:03;;;;;;;3.70;0.98;;;5.00;88.80;;;;;;5112183;28;20036;-76
2022/02/22 02:07:29;;;;;;;6.00;1.02;;;5.00;88.80;;;;;;5094322;28;20458;-76
2022/02/22 02:09:55;;;;;;;3.63;0.93;;;5.00;88.80;;;;;;5077186;28;20081;-76
2022/02/22 02:12:20;;;;;;;4.55;1.10;;;4.90;88.90;;;;;;5112637;28;20090;-76
2022/02/22 02:14:46;;;;;;;3.40;0.57;;;4.90;89.00;;;;;;5113967;28;20035;-76
2022/02/22 02:17:12;;;;;;;3.33;1.10;;;4.90;89.10;;;;;;5097486;28;20043;-76
2022/02/22 02:19:40;;;;;;;5.25;1.00;;;4.80;89.10;;;;;;5097422;28;20074;-77
2022/02/22 02:22:06;;;;;;;3.53;1.00;;;4.80;89.10;;;;;;5097315;28;20505;-77
2022/02/22 02:24:32;;;;;;;3.08;0.88;;;4.80;89.00;;;;;;5080604;28;20040;-77
2022/02/22 02:26:58;;;;;;;2.78;0.75;;;4.80;89.10;;;;;;5115643;28;20433;-76
2022/02/22 02:29:27;;;;;;;3.45;0.90;;;4.70;89.10;;;;;;5097722;28;20036;-76
2022/02/22 02:31:53;;;;;;;4.28;0.80;;;4.70;89.30;;;;;;5097471;28;20104;-76
2022/02/22 02:34:22;;;;;;;3.08;0.70;;;4.70;89.30;;;;;;5097366;28;20130;-76
2022/02/22 02:36:48;;;;;;;2.55;0.50;;;4.70;89.40;;;;;;5115908;28;20081;-76
2022/02/22 02:39:13;;;;;;;3.17;0.70;;;4.60;89.40;;;;;;5080397;28;20117;-76
2022/02/22 02:41:41;;;;;;;2.97;0.80;;;4.60;89.40;;;;;;5097009;28;20036;-76
2022/02/22 02:44:10;;;;;;;2.03;0.63;;;4.60;89.50;;;;;;5115412;28;20043;-76
2022/02/22 02:46:36;;;;;;;5.78;0.90;;;4.60;89.60;;;;;;5097302;28;20073;-76
2022/02/22 02:49:02;;;;;;;2.50;0.70;;;4.50;89.60;;;;;;5097287;28;20047;-76
2022/02/22 02:51:28;;;;;;;2.58;0.82;;;4.50;89.60;;;;;;5096931;28;20040;-76
2022/02/22 02:53:55;;;;;;;2.42;0.75;;;4.50;89.60;;;;;;5096996;28;20054;-76
2022/02/22 02:56:23;;;;;;;2.20;0.60;;;4.50;89.60;;;;;;5115065;28;20424;-76
2022/02/22 02:58:52;;;;;;;4.32;1.30;;;4.50;89.60;;;;;;5096994;28;20099;-76
2022/02/22 03:01:18;;;;;;;3.65;1.10;;;4.40;89.60;;;;;;5113330;28;20077;-76
2022/02/22 03:03:43;;;;;;;2.72;0.80;;;4.50;89.70;;;;;;5115404;28;20408;-76
2022/02/22 03:06:09;;;;;;;2.45;0.77;;;4.50;89.70;;;;;;5079989;28;20035;-75
2022/02/22 03:08:35;;;;;;;3.35;0.90;;;4.50;89.70;;;;;;5115080;28;20055;-76
2022/02/22 03:11:01;;;;;;;3.05;1.00;;;4.40;89.60;;;;;;5114987;28;20035;-77
2022/02/22 03:13:27;;;;;;;4.97;1.13;;;4.40;89.60;;;;;;5115324;28;20040;-76
2022/02/22 03:15:52;;;;;;;4.43;0.98;;;4.40;89.60;;;;;;5115082;28;20039;-76
2022/02/22 03:18:18;;;;;;;4.03;1.05;;;4.40;89.70;;;;;;5096627;28;20043;-76
2022/02/22 03:20:44;;;;;;;3.03;0.80;;;4.40;89.70;;;;;;5096687;28;20044;-75
2022/02/22 03:23:09;;;;;;;2.80;0.70;;;4.40;89.80;;;;;;5115346;28;20036;-76
2022/02/22 03:25:35;;;;;;;3.97;1.00;;;4.40;89.80;;;;;;5079400;28;20389;-75
2022/02/22 03:28:04;;;;;;;2.35;0.65;;;4.30;89.80;;;;;;5115266;28;20070;-76
2022/02/22 03:30:32;;;;;;;2.92;0.65;;;4.30;89.90;;;;;;5096873;28;20042;-75
2022/02/22 03:32:59;;;;;;;4.00;0.85;;;4.30;89.90;;;;;;5096817;28;20118;-75
2022/02/22 03:35:25;;;;;;;3.55;0.68;;;4.40;90.20;;;;;;5115056;28;20071;-75
2022/02/22 03:37:51;;;;;;;2.58;0.73;;;4.30;89.90;;;;;;5096273;28;20565;-75
2022/02/22 03:40:19;;;;;;;1.83;0.75;;;4.30;90.00;;;;;;5114508;28;20123;-75
2022/02/22 03:42:45;;;;;;;1.83;0.70;;;4.30;90.00;;;;;;5096278;28;20059;-75
2022/02/22 03:45:15;;;;;;;1.75;0.70;;;4.30;90.00;;;;;;5096576;28;20048;-76
2022/02/22 03:47:41;;;;;;;2.80;0.77;;;4.30;90.00;;;;;;5079633;28;20039;-75
2022/02/22 03:50:09;;;;;;;3.72;0.77;;;4.30;90.00;;;;;;5079381;28;20032;-76
2022/02/22 03:52:36;;;;;;;1.88;0.60;;;4.30;90.00;;;;;;5114167;28;20074;-75
2022/02/22 03:55:04;;;;;;;2.63;0.77;;;4.40;90.00;;;;;;5095865;28;20130;-75
2022/02/22 03:57:30;;;;;;;1.83;0.52;;;4.30;90.00;;;;;;5096330;28;20444;-75
2022/02/22 03:59:56;;;;;;;1.40;0.60;;;4.30;90.00;;;;;;5095965;28;20143;-76
2022/02/22 04:02:21;;;;;;;2.50;0.60;;;4.20;90.00;;;;;;5095805;28;20126;-76
2022/02/22 04:04:47;;;;;;;2.90;0.80;;;4.20;90.00;;;;;;5114182;28;20439;-76
2022/02/22 04:07:14;;;;;;;2.45;0.63;;;4.30;90.00;;;;;;5060582;28;20036;-76
2022/02/22 04:09:40;;;;;;;2.92;0.90;;;4.20;90.00;;;;;;5079136;28;20035;-75
2022/02/22 04:12:06;;;;;;;3.25;0.95;;;4.20;90.00;;;;;;5079466;28;20040;-75
2022/02/22 04:14:32;;;;;;;2.75;0.90;;;4.20;90.00;;;;;;5096258;28;20071;-75
2022/02/22 04:16:57;;;;;;;4.13;0.90;;;4.20;90.10;;;;;;5114630;28;20039;-75
2022/02/22 04:19:23;;;;;;;4.57;0.98;;;4.20;90.10;;;;;;5078757;28;20062;-76
2022/02/22 04:21:49;;;;;;;2.90;0.73;;;4.20;90.10;;;;;;5096198;28;20044;-75
2022/02/22 04:24:15;;;;;;;5.50;1.00;;;4.20;90.10;;;;;;5078853;28;20540;-76
2022/02/22 04:26:41;;;;;;;3.00;0.60;;;4.20;90.10;;;;;;5113997;28;20122;-75
2022/02/22 04:29:07;;;;;;;2.58;0.57;;;4.20;90.10;;;;;;5095467;28;20061;-75
2022/02/22 04:31:38;;;;;;;5.75;0.82;;;4.20;90.10;;;;;;5078579;28;20110;-75
2022/02/22 04:34:05;;;;;;;1.75;0.60;;;4.20;90.10;;;;;;5080094;28;20071;-76
2022/02/22 04:36:31;;;;;;;2.90;0.77;;;4.20;90.10;;;;;;5094830;28;20065;-76
2022/02/22 04:38:57;;;;;;;7.22;0.80;;;4.20;90.40;;;;;;5113944;28;20047;-76
2022/02/22 04:41:23;;;;;;;1.45;0.60;;;4.20;90.10;;;;;;5113635;28;20393;-76
2022/02/22 04:43:49;;;;;;;3.15;0.77;;;4.20;90.10;;;;;;5113835;28;20047;-76
2022/02/22 04:46:15;;;;;;;2.35;0.63;;;4.20;90.10;;;;;;5095357;28;20561;-76
2022/02/22 04:48:40;;;;;;;3.67;1.00;;;4.20;90.20;;;;;;5078231;28;20114;-76
2022/02/22 04:51:06;;;;;;;1.98;0.32;;;4.20;90.20;;;;;;5113672;28;21397;-76
2022/02/22 04:53:32;;;;;;;1.77;0.47;;;4.20;90.20;;;;;;5094966;28;20085;-77
2022/02/22 04:55:57;;;;;;;4.28;0.73;;;4.20;90.20;;;;;;5095215;28;20053;-76
2022/02/22 04:58:23;;;;;;;2.63;0.82;;;4.20;90.50;;;;;;5078219;28;20044;-76
2022/02/22 05:00:50;;;;;;;1.27;0.73;;;4.20;90.20;;;;;;5113906;28;20039;-76
2022/02/22 05:03:17;;;;;;;1.27;0.45;;;4.20;90.50;;;;;;5113425;28;20057;-76
2022/02/22 05:05:43;;;;;;;1.50;0.50;;;4.10;90.30;;;;;;5095112;28;20385;-76
2022/02/22 05:08:08;;;;;;;2.08;0.40;;;4.10;90.40;;;;;;5113716;28;20497;-76
2022/02/22 05:10:34;;;;;;;1.17;0.40;;;4.10;90.40;;;;;;5095028;28;20036;-76
2022/02/22 05:13:00;;;;;;;1.23;0.50;;;4.00;90.40;;;;;;5095758;28;20043;-76
2022/02/22 05:15:26;;;;;;;0.52;0.40;;;4.00;90.50;;;;;;5113265;28;20405;-76
2022/02/22 05:17:52;;;;;;;2.22;0.50;;;3.90;90.50;;;;;;5078446;28;20035;-76
2022/02/22 05:20:18;;;;;;;2.60;0.60;;;4.10;90.50;;;;;;5095225;28;20048;-76
2022/02/22 05:22:46;;;;;;;1.77;0.40;;;3.90;90.50;;;;;;5061180;28;20042;-76
2022/02/22 05:25:14;;;;;;;0.98;0.30;;;4.00;90.50;;;;;;5095655;28;20034;-76
2022/02/22 05:27:40;;;;;;;2.70;0.50;;;3.90;90.50;;;;;;5095270;28;20474;-76
2022/02/22 05:30:12;;;;;;;2.72;0.60;;;3.90;90.50;;;;;;5095209;28;20097;-76
2022/02/22 05:32:38;;;;;;;0.57;0.35;;;3.90;90.50;;;;;;5113377;28;20044;-76
2022/02/22 05:35:05;;;;;;;1.27;0.63;;;3.90;90.50;;;;;;5094721;28;20482;-76
2022/02/22 05:37:31;;;;;;;0.98;0.30;;;3.90;90.50;;;;;;5095149;28;20047;-76
2022/02/22 05:39:57;;;;;;;4.32;0.50;;;3.80;90.60;;;;;;5094680;28;20447;-76
2022/02/22 05:42:24;;;;;;;1.27;0.30;;;3.70;90.60;;;;;;5094759;28;20397;-77
2022/02/22 05:44:50;;;;;;;1.23;0.57;;;3.80;90.60;;;;;;5094731;28;20477;-76
2022/02/22 05:47:16;;;;;;;1.05;0.47;;;3.70;90.70;;;;;;5112912;28;20042;-76
2022/02/22 05:49:42;;;;;;;2.72;0.40;;;3.70;90.70;;;;;;5113096;28;20473;-76
2022/02/22 05:52:08;;;;;;;1.95;0.55;;;3.70;90.70;;;;;;5095281;28;20473;-76
2022/02/22 05:54:34;;;;;;;2.20;0.45;;;3.70;90.70;;;;;;5113392;28;20130;-76
2022/02/22 05:57:00;;;;;;;0.88;0.30;;;3.60;90.70;;;;;;5112588;28;20514;-75
2022/02/22 05:59:26;;;;;;;0.88;0.35;;;3.70;90.70;;;;;;5077668;28;20111;-77
2022/02/22 06:01:51;;;;;;;1.92;0.50;;;3.60;90.70;;;;;;5094177;28;20047;-76
2022/02/22 06:04:17;;;;;;;2.28;0.80;;;3.60;90.80;;;;;;5113073;28;20031;-76
2022/02/22 06:06:43;;;;;;;1.00;0.43;;;3.60;90.80;;;;;;5113142;28;20215;-76
2022/02/22 06:09:09;;;;;;;2.22;0.50;;;3.50;90.80;;;;;;5077425;28;20044;-76
2022/02/22 06:11:36;;;;;;;0.95;0.28;;;3.60;90.80;;;;;;5112507;28;20040;-76
2022/02/22 06:14:02;;;;;;;0.55;0.22;;;3.60;90.80;;;;;;5077439;28;20044;-76
2022/02/22 06:16:28;;;;;;;1.38;0.22;;;3.50;90.70;;;;;;5112525;28;20038;-76
2022/02/22 06:18:54;;;;;;;0.88;0.30;;;3.50;90.80;;;;;;5112993;28;20073;-76
2022/02/22 06:21:20;;;;;;;0.50;0.30;;;3.50;90.80;;;;;;5112287;28;20040;-77
2022/02/22 06:23:46;;;;;;;0.35;0.30;;;3.50;90.80;;;;;;5094102;28;20051;-77
2022/02/22 06:26:12;;;;;;;0.77;0.35;;;3.50;90.90;;;;;;5112397;28;20501;-77
2022/02/22 06:28:38;;;;;;;2.08;0.30;;;3.40;90.90;;;;;;5094262;28;20118;-76
2022/02/22 06:31:04;;;;;;;0.65;0.13;;;3.40;90.90;;;;;;5094404;28;20039;-76
2022/02/22 06:33:31;;;;;;;2.88;0.43;;;3.40;90.90;;;;;;5112828;28;20063;-76
2022/02/22 06:35:57;;;;;;;2.10;0.50;;;3.40;90.90;;;;;;5112386;28;20044;-76
2022/02/22 06:38:23;;;;;;;2.15;0.35;;;3.50;90.90;;;;;;5112252;28;20050;-75
2022/02/22 06:40:49;;;;;;;1.23;0.30;;;3.50;90.90;;;;;;5093820;28;20134;-76
2022/02/22 06:43:15;;;;;;;1.73;0.43;;;3.50;90.90;;;;;;5093962;28;20036;-76
2022/02/22 06:45:41;;;;;;;0.60;0.30;;;3.50;90.90;;;;;;5093997;28;20405;-76
2022/02/22 06:48:07;;;;;;;1.75;0.45;;;3.50;90.80;;;;;;5094523;28;20035;-76
2022/02/22 06:50:35;;;;;;;1.15;0.40;;;3.60;90.80;;;;;;5093856;28;20031;-76
2022/02/22 06:53:01;;;;;;;1.13;0.43;;;3.50;90.80;;;;;;5093664;28;20084;-76
2022/02/22 06:55:26;;;;;;;2.60;0.43;;;3.60;90.80;;;;;;5093783;28;20036;-76
2022/02/22 06:57:54;;;;;;;0.98;0.30;;;3.60;90.70;;;;;;5111856;28;20089;-76
2022/02/22 07:00:21;;;;;;;1.73;0.40;;;3.70;90.80;;;;;;5113078;28;20096;-76
2022/02/22 07:02:47;;;;;;;0.82;0.30;;;3.60;90.70;;;;;;5097184;28;20063;-75
2022/02/22 07:05:14;;;;;;;1.52;0.43;;;3.60;90.80;;;;;;5080274;28;20048;-76
2022/02/22 07:07:40;;;;;;;2.42;0.38;;;3.70;90.80;;;;;;5080354;28;20105;-76
2022/02/22 07:10:07;;;;;;;2.08;0.40;;;3.70;90.80;;;;;;5080805;28;20477;-76
2022/02/22 07:12:32;;;;;;;0.90;0.47;;;3.70;90.80;;;;;;5063475;28;20044;-76
2022/02/22 07:14:58;;;;;;;2.72;0.60;;;3.80;90.70;;;;;;5115062;28;20122;-77
2022/02/22 07:17:24;;;;;;;2.17;0.63;;;3.80;90.70;;;;;;5096482;28;20031;-77
2022/02/22 07:19:51;;;;;;;1.95;0.40;;;3.90;90.60;;;;;;5114732;28;20055;-76
2022/02/22 07:22:17;;;;;;;3.60;0.70;;;4.00;90.50;;;;;;5114570;28;20050;-76
2022/02/22 07:24:43;;;;;;;1.50;0.75;;;4.10;90.50;;;;;;5114501;28;20048;-76
2022/02/22 07:27:09;;;;;;;1.75;0.43;;;4.10;90.50;;;;;;5114806;28;20040;-78
2022/02/22 07:29:35;;;;;;;3.65;0.40;;;4.20;90.70;;;;;;5080971;28;20044;-76
2022/02/22 07:32:01;;;;;;;3.10;0.77;;;4.20;90.40;;;;;;5115202;28;20050;-77
2022/02/22 07:34:27;;;;;;;1.40;0.60;;;4.30;90.40;;;;;;5065983;28;20127;-76
2022/02/22 07:36:52;;;;;;;0.90;0.45;;;4.30;90.60;;;;;;5040181;28;20032;-75
2022/02/22 07:39:18;;;;;;;1.23;0.47;;;4.30;90.30;;;;;;5072352;28;20048;-76
2022/02/22 07:41:44;;;;;;;4.35;0.68;;;4.40;90.30;;;;;;5055587;28;20352;-77
2022/02/22 07:47:35;;;;;;;1.23;0.60;;;4.50;90.30;;;;;;4965059;28;20031;-76
2022/02/22 07:50:02;;;;;;;1.70;0.55;;;4.40;90.30;;;;;;4973032;28;20085;-76
2022/02/22 07:52:29;;;;;;;3.00;0.60;;;4.50;90.30;;;;;;4973208;28;20039;-76
2022/02/22 07:54:55;;;;;;;1.90;0.52;;;4.50;90.30;;;;;;4973553;28;20086;-76
2022/02/22 07:57:22;;;;;;;1.10;0.50;;;4.60;90.30;;;;;;4972945;28;20047;-76
2022/02/22 07:59:48;;;;;;;1.10;0.47;;;4.70;90.30;;;;;;4973122;28;20106;-76
2022/02/22 08:02:14;;;;;;;0.95;0.43;;;4.70;90.30;;;;;;4973052;28;20050;-78
2022/02/22 08:04:41;;;;;;;2.95;0.75;;;4.80;90.20;;;;;;4972993;28;20046;-77
2022/02/22 08:07:08;;;;;;;3.15;0.57;;;4.90;90.20;;;;;;4969529;28;20122;-77
2022/02/22 08:09:34;;;;;;;1.70;0.50;;;5.10;90.20;;;;;;4952089;28;20139;-78
2022/02/22 08:12:00;;;;;;;2.92;0.73;;;5.30;90.10;;;;;;4936378;29;20040;-78
2022/02/22 08:14:26;;;;;;;4.10;0.70;;;5.30;90.00;;;;;;4953108;29;20054;-76
2022/02/22 08:16:57;;;;;;;4.40;0.93;;;5.40;89.80;;;;;;4966936;28;20049;-77
2022/02/22 08:19:25;;;;;;;6.40;1.15;;;5.50;89.70;;;;;;5011897;28;20124;-77
2022/02/22 08:21:50;;;;;;;3.22;1.00;;;5.50;89.70;;;;;;5048648;28;20044;-78
2022/02/22 08:24:16;;;;;;;2.15;0.85;;;5.60;89.70;;;;;;5095793;28;20400;-77
2022/02/22 08:26:42;;;;;;;3.17;0.90;;;5.60;89.70;;;;;;5062283;28;20396;-76
2022/02/22 08:29:08;;;;;;;2.30;0.75;;;5.70;89.80;;;;;;5078982;28;20031;-75
2022/02/22 08:31:34;;;;;;;4.40;0.98;;;5.70;89.70;;;;;;5095819;28;20363;-75
2022/02/22 08:34:02;;;;;;;4.45;0.70;;;5.80;89.80;;;;;;5095350;28;20043;-74
2022/02/22 08:36:29;;;;;;;3.97;0.90;;;5.90;89.80;;;;;;5095504;28;20131;-75
2022/02/22 08:38:55;;;;;;;6.07;1.15;;;5.90;89.70;;;;;;5095631;28;20055;-76
2022/02/22 08:41:21;;;;;;;2.40;0.90;;;5.90;89.60;;;;;;5114151;28;20043;-76
2022/02/22 08:43:49;;;;;;;3.05;1.23;;;6.10;89.70;;;;;;5059735;28;20067;-77
2022/02/22 08:46:15;;;;;;;3.03;1.00;;;6.10;89.60;;;;;;5080205;28;20059;-75
2022/02/22 08:48:41;;;;;;;2.97;1.00;;;6.20;89.50;;;;;;5113655;28;20047;-75
2022/02/22 08:51:07;;;;;;;3.40;1.15;;;6.30;89.50;;;;;;5114734;28;20370;-76
2022/02/22 08:53:32;;;;;;;3.35;1.02;;;6.30;89.40;;;;;;5096147;28;20528;-76
2022/02/22 08:56:03;;;;;;;5.10;1.08;;;6.40;89.40;;;;;;5078714;28;20052;-79
2022/02/22 08:58:28;;;;;;;4.32;1.20;;;6.40;89.40;;;;;;5080971;28;20131;-78
2022/02/22 09:01:04;;;;;;;4.50;1.27;;;6.50;90.00;;;;;;5096168;28;20130;-79
2022/02/22 09:07:15;;;;;;;4.25;1.08;;;6.60;90.00;;;;;;4959528;29;20395;-78
2022/02/22 09:10:05;;;;;;;5.53;1.38;;;6.80;89.40;;;;;;4957934;29;20046;-79
2022/02/22 09:12:32;;;;;;;5.70;1.63;;;6.70;89.20;;;;;;4924262;29;20493;-80
2022/02/22 09:14:57;;;;;;;4.18;1.52;;;6.80;89.20;;;;;;4936497;29;20043;-79
2022/02/22 09:17:23;;;;;;;3.47;1.35;;;6.90;89.20;;;;;;4952429;29;20134;-78
2022/02/22 09:19:49;;;;;;;5.22;1.30;;;7.00;89.10;;;;;;4936758;29;20142;-78
2022/02/22 09:22:15;;;;;;;4.35;1.50;;;7.20;89.20;;;;;;4905063;28;20498;-78
2022/02/22 09:24:40;;;;;;;5.47;1.50;;;7.10;89.00;;;;;;4936232;29;20466;-79
2022/02/22 09:27:06;;;;;;;5.55;1.50;;;7.10;88.90;;;;;;4936202;29;20126;-79
2022/02/22 09:33:06;;;;;;;5.97;1.70;;;7.30;89.00;;;;;;4915398;29;20114;-78
2022/02/22 09:35:35;;;;;;;4.63;1.33;;;7.30;88.80;;;;;;4914183;29;20112;-79
2022/02/22 09:38:03;;;;;;;3.15;1.40;;;7.40;88.80;;;;;;4937753;28;20043;-78
2022/02/22 09:40:30;;;;;;;4.07;1.40;;;7.40;88.80;;;;;;4990588;28;20124;-78
2022/02/22 09:43:02;;;;;;;6.25;1.60;;;7.40;88.70;;;;;;4995037;28;20108;-78
2022/02/22 09:45:44;;;;;;;6.07;1.88;;;7.40;88.70;;;;;;5010336;28;20050;-79
2022/02/22 09:48:10;;;;;;;5.13;1.65;;;7.40;88.70;;;;;;5052081;28;20502;-80
2022/02/22 09:50:36;;;;;;;4.75;1.83;;;7.50;88.60;;;;;;5010240;28;20099;-77
2022/02/22 09:53:03;;;;;;;5.80;1.98;;;7.50;88.60;;;;;;5010455;28;20042;-77
2022/02/22 09:55:31;;;;;;;6.70;1.88;;;7.50;88.70;;;;;;4994083;28;20049;-78
2022/02/22 09:57:57;;;;;;;6.35;1.90;;;7.50;88.70;;;;;;4977848;28;20435;-77
2022/02/22 10:00:26;;;;;;;5.15;1.85;;;7.30;88.60;;;;;;5010781;28;20129;-78
2022/02/22 10:03:18;;;;;;;5.38;1.63;;;7.50;88.80;;;;;;5012232;28;20041;-79
2022/02/22 10:05:54;;;;;;;;;;;7.50;88.90;;;;;;5027982;28;20133;-77
2022/02/22 10:08:26;;;;;;;5.45;1.80;;;7.50;88.90;;;;;;5045243;28;19927;-76
2022/02/22 10:10:59;;;;;;;;;;;7.60;88.90;;;;;;5043248;28;20045;-75
2022/02/22 10:13:25;;;;;;;6.97;1.38;;;7.50;88.80;;;;;;5040966;28;19974;-77
2022/02/22 10:15:50;;;;;;;5.15;1.50;;;7.50;88.70;;;;;;5044145;28;20045;-75
2022/02/22 10:18:16;;;;;;;4.55;1.40;;;7.50;88.80;;;;;;5048048;28;20126;-76
2022/02/22 10:20:48;;;;;;;7.60;1.73;;;7.50;88.80;;;;;;5032617;28;20044;-77
2022/02/22 10:23:14;;;;;;;4.28;1.40;;;7.60;89.40;;;;;;5063056;28;20515;-77
2022/02/22 10:25:40;;;;;;;5.70;1.50;;;7.70;88.60;;;;;;5113369;28;20039;-77
2022/02/22 10:28:07;;;;;;;5.93;1.45;;;7.70;88.60;;;;;;5101475;28;20122;-76
2022/02/22 10:30:39;;;;;;;4.70;1.45;;;7.70;88.60;;;;;;5095040;28;20114;-77
2022/02/22 10:33:33;;;;;;;6.50;1.70;;;7.60;88.50;;;;;;5078325;28;20485;-78
2022/02/22 10:36:04;;;;;;;7.03;1.75;;;7.80;88.60;;;;;;5066985;28;20039;-77
2022/02/22 10:38:33;;;;;;;4.88;1.30;;;7.70;88.60;;;;;;5103300;28;20473;-77
2022/02/22 10:41:14;;;;;;;5.75;1.55;;;7.80;88.60;;;;;;5082425;28;20039;-78
2022/02/22 10:43:48;;;;;;;4.75;1.33;;;7.80;88.40;;;;;;5067950;28;20118;-76
2022/02/22 10:46:14;;;;;;;5.03;1.52;;;7.80;88.40;;;;;;5095834;28;20036;-76
2022/02/22 10:48:42;;;;;;;3.38;1.42;;;7.80;88.50;;;;;;5097808;28;20112;-76
2022/02/22 10:51:11;;;;;;;5.07;1.20;;;7.90;88.60;;;;;;5097273;28;20401;-77
2022/02/22 10:53:41;;;;;;;6.20;1.70;;;7.80;88.50;;;;;;5080618;28;20054;-77
2022/02/22 10:56:10;;;;;;;6.07;1.60;;;7.90;88.50;;;;;;5097398;28;20054;-77
2022/02/22 10:58:40;;;;;;;5.90;1.70;;;7.80;88.40;;;;;;5115669;28;20044;-77
2022/02/22 11:01:10;;;;;;;6.80;1.58;;;7.90;88.40;;;;;;5081730;28;20036;-77
2022/02/22 11:03:37;;;;;;;7.50;1.70;;;7.90;88.40;;;;;;5081192;28;20078;-76
2022/02/22 11:06:03;;;;;;;7.65;1.70;;;7.80;88.30;;;;;;5115892;28;20456;-77
2022/02/22 11:08:33;;;;;;;5.28;1.50;;;7.90;88.40;;;;;;5097192;28;20035;-76
2022/02/22 11:11:05;;;;;;;5.60;1.58;;;7.90;88.30;;;;;;5115633;28;20035;-76
2022/02/22 11:13:31;;;;;;;;;;;8.00;88.30;;;;;;5114619;28;20047;-76
2022/02/22 11:16:17;;;;;;;6.43;1.45;;;8.00;88.40;;;;;;5113364;28;19912;-76
2022/02/22 11:18:53;;;;;;;3.83;1.40;;;8.00;88.20;;;;;;5079001;28;20411;-76
2022/02/22 11:21:24;;;;;;;4.25;1.35;;;8.00;88.10;;;;;;5098289;28;20067;-77
2022/02/22 11:24:01;;;;;;;4.63;1.23;;;8.00;88.10;;;;;;5097325;28;20058;-76
2022/02/22 11:26:28;;;;;;;5.20;1.50;;;8.00;88.10;;;;;;5082025;28;20038;-76
2022/02/22 11:28:59;;;;;;;5.45;1.77;;;8.00;88.10;;;;;;5059076;28;20143;-76
2022/02/22 11:31:33;;;;;;;4.93;1.20;;;8.00;88.10;;;;;;5072694;28;20120;-77
2022/02/22 11:34:02;;;;;;;4.68;1.40;;;8.00;88.20;;;;;;5040353;28;20064;-77
2022/02/22 11:36:32;;;;;;;6.28;1.70;;;8.00;88.20;;;;;;5073587;28;20048;-78
2022/02/22 11:38:58;;;;;;;7.65;1.58;;;8.00;88.20;;;;;;5040203;28;20047;-76
2022/02/22 11:41:28;;;;;;;4.18;1.50;;;8.00;88.30;;;;;;5022610;28;20130;-78
2022/02/22 11:44:01;;;;;;;6.35;2.17;;;7.90;88.30;;;;;;5050795;28;20079;-76
2022/02/22 11:46:41;;;;;;;8.13;1.98;;;7.90;88.50;;;;;;5057836;28;20044;-77
2022/02/22 11:49:10;;;;;;;7.53;2.20;;;7.80;88.50;;;;;;5072014;28;20119;-78
2022/02/22 11:51:45;;;;;;;7.35;2.17;;;7.80;88.60;;;;;;5071970;28;20048;-77
2022/02/22 11:54:17;;;;;;;11.98;2.70;;;7.80;88.80;;;;;;5054642;28;20105;-77
2022/02/22 11:56:43;;;;;;;6.68;1.90;;;7.80;88.80;;;;;;5072527;28;20155;-77
2022/02/22 11:59:59;;;;;;;6.90;1.80;;;7.80;89.00;;;;;;5062959;28;20048;-79
2022/02/22 12:02:44;;;;;;;5.93;1.60;;;7.70;89.20;;;;;;5035014;28;20116;-77
2022/02/22 12:05:38;;;;;;;4.03;1.55;;;7.80;89.20;;;;;;5051223;28;20052;-79
2022/02/22 12:08:10;;;;;;;7.50;1.80;;;7.80;89.30;;;;;;4974065;28;20035;-79
2022/02/22 12:10:46;;;;;;;7.63;1.65;;;7.80;89.40;;;;;;4992012;28;20116;-78
2022/02/22 12:13:14;;;;;;;4.65;1.48;;;7.70;89.30;;;;;;4991678;28;20042;-76
2022/02/22 12:15:42;;;;;;;7.93;2.08;;;7.80;89.40;;;;;;4992907;28;20038;-77
2022/02/22 12:18:15;;;;;;;6.25;2.08;;;7.80;89.50;;;;;;4992224;28;20046;-76
2022/02/22 12:20:42;;;;;;;5.28;1.77;;;7.80;89.40;;;;;;4976155;28;20488;-77
2022/02/22 12:23:16;;;;;;;6.78;2.03;;;7.90;89.60;;;;;;4992288;28;20042;-77
2022/02/22 12:25:42;;;;;;;6.63;2.00;;;7.80;89.50;;;;;;4988195;28;20041;-77
2022/02/22 12:28:10;;;;;;;3.95;1.50;;;7.90;89.50;;;;;;5052862;28;20576;-77
2022/02/22 12:30:39;;;;;;;6.15;2.00;;;7.90;89.50;;;;;;5035100;28;20051;-77
2022/02/22 12:33:20;;;;;;;8.85;2.17;;;8.00;89.50;;;;;;5021948;28;20049;-79
2022/02/22 12:35:46;;;;;;;6.30;1.65;;;8.10;89.50;;;;;;4979494;28;20049;-76
2022/02/22 12:38:17;;;;;;;7.28;2.40;;;8.20;89.50;;;;;;5019746;28;20056;-77
2022/02/22 12:40:48;;;;;;;6.57;2.63;;;8.20;89.40;;;;;;5035610;28;20068;-77
2022/02/22 12:43:15;;;;;;;6.03;1.98;;;8.30;89.40;;;;;;5033484;28;20037;-77
2022/02/22 12:45:46;;;;;;;6.65;2.25;;;8.20;89.30;;;;;;5034723;28;20084;-76
2022/02/22 12:48:15;;;;;;;7.65;2.47;;;8.30;89.40;;;;;;5036144;28;20048;-76
2022/02/22 12:50:41;;;;;;;8.18;2.67;;;8.40;89.40;;;;;;5036520;28;20033;-77
2022/02/22 12:53:07;;;;;;;6.03;2.35;;;8.40;89.40;;;;;;5039664;28;20057;-78
2022/02/22 12:55:45;;;;;;;7.10;2.40;;;8.50;89.50;;;;;;5040304;28;20060;-79
2022/02/22 12:58:35;;;;;;;7.93;2.50;;;8.50;89.50;;;;;;5036776;28;20048;-80
2022/02/22 13:01:20;;;;;;;7.68;2.63;;;8.60;89.50;;;;;;4956278;28;20046;-78
2022/02/22 13:03:50;;;;;;;7.72;2.38;;;8.60;89.50;;;;;;4971271;28;20219;-78
2022/02/22 13:06:16;;;;;;;7.60;2.38;;;8.70;89.60;;;;;;4989939;28;20088;-79
2022/02/22 13:09:01;;;;;;;7.57;2.13;;;8.60;89.60;;;;;;5015135;28;20183;-78
2022/02/22 13:18:40;;;;;;;;;;;8.60;89.70;;;;;;4922033;29;20052;-78